Time,TemperatureF,DewpointF,PressureIn,WindDirection,WindDirectionDegrees,WindSpeedMPH,WindSpeedGustMPH,Humidity,HourlyPrecipIn,Conditions,Clouds,dailyrainin,SolarRadiationWatts/m^2,SoftwareType,DateUTC
2013-01-25 00:00:00,-7.7,-11.5,30.55,NNW,336,0.0,0.0,83,0.00,,BKN260,0.00,0.00,VWS V14.01,2013-01-25 05:00:00,
2013-01-25 00:01:00,-6.7,-11.8,30.53,NW,326,0.0,1.1,78,0.00,BKN,OVC,0.00,0.0,WeatherDisplay:10.37,2013-01-25 05:01:00,
2013-01-25 00:06:00,-7.9,-11.7,30.55,NNW,336,0.0,0.0,83,0.00,,BKN260,0.00,0.00,VWS V14.01,2013-01-25 05:06:00,
2013-01-25 00:11:00,-7.9,-11.9,30.55,NNW,336,0.0,0.0,82,0.00,,BKN260,0.00,0.00,VWS V14.01,2013-01-25 05:11:00,
2013-01-25 00:16:00,-7.1,-12.2,30.53,NW,326,0.0,0.0,78,0.00,BKN,OVC,0.00,0.0,WeatherDisplay:10.37,2013-01-25 05:16:00,
2013-01-25 00:21:00,-8.1,-11.9,30.54,NNW,336,0.0,0.0,83,0.00,,BKN260,0.00,0.00,VWS V14.01,2013-01-25 05:21:00,
2013-01-25 00:26:00,-7.3,-12.3,30.53,NW,326,0.2,2.3,78,0.00,BKN,OVC,0.00,0.0,WeatherDisplay:10.37,2013-01-25 05:26:00,
2013-01-25 00:31:00,-8.2,-12.2,30.55,NNW,336,0.0,0.0,82,0.00,,BKN260,0.00,0.00,VWS V14.01,2013-01-25 05:31:00,
2013-01-25 00:36:00,-7.3,-12.1,30.53,NW,326,0.0,0.0,79,0.00,SCT,OVC,0.00,0.0,WeatherDisplay:10.37,2013-01-25 05:36:00,
2013-01-25 00:41:00,-8.4,-12.4,30.55,NNW,336,0.0,0.0,82,0.00,,SCT260,0.00,0.00,VWS V14.01,2013-01-25 05:41:00,
2013-01-25 00:46:00,-8.4,-12.4,30.54,NNW,336,0.0,0.0,82,0.00,,SCT260,0.00,0.00,VWS V14.01,2013-01-25 05:46:00,
2013-01-25 00:51:00,-8.5,-12.5,30.54,NNW,336,0.0,0.0,82,0.00,,SCT260,0.00,0.00,VWS V14.01,2013-01-25 05:51:00,
2013-01-25 00:56:00,-8.5,-12.5,30.53,NNW,336,0.0,0.0,82,0.00,,SCT260,0.00,0.00,VWS V14.01,2013-01-25 05:56:00,
2013-01-25 01:01:00,-8.6,-12.6,30.53,NNW,336,0.0,0.0,82,0.00,,SCT260,0.00,0.00,VWS V14.01,2013-01-25 06:01:00,
2013-01-25 01:06:00,-7.4,-12.2,30.52,NW,326,0.0,0.0,79,0.00,SCT,OVC,0.00,0.0,WeatherDisplay:10.37,2013-01-25 06:06:00,
2013-01-25 01:11:00,-8.6,-12.6,30.53,NNW,336,0.0,0.0,82,0.00,,SCT260,0.00,0.00,VWS V14.01,2013-01-25 06:11:00,
2013-01-25 01:16:00,-8.6,-12.6,30.53,NNW,336,0.0,0.0,82,0.00,,SCT260,0.00,0.00,VWS V14.01,2013-01-25 06:16:00,
2013-01-25 01:21:00,-7.5,-12.3,30.51,NW,326,0.0,0.0,79,0.00,BKN,OVC,0.00,0.0,WeatherDisplay:10.37,2013-01-25 06:21:00,
2013-01-25 01:26:00,-8.5,-12.3,30.52,NNW,336,0.0,0.0,83,0.00,,SCT260,0.00,0.00,VWS V14.01,2013-01-25 06:26:00,
2013-01-25 01:31:00,-7.6,-12.6,30.51,NW,326,0.0,0.0,78,0.00,BKN,OVC,0.00,0.0,WeatherDisplay:10.37,2013-01-25 06:31:00,
2013-01-25 01:36:00,-7.6,-12.6,30.51,NW,326,0.0,0.0,78,0.00,BKN,OVC,0.00,0.0,WeatherDisplay:10.37,2013-01-25 06:36:00,
2013-01-25 01:41:00,-8.4,-12.2,30.53,NNW,336,0.0,0.0,83,0.00,,BKN250,0.00,0.00,VWS V14.01,2013-01-25 06:41:00,
2013-01-25 01:46:00,-7.6,-12.4,30.51,NW,326,0.0,0.0,79,0.00,BKN,OVC,0.00,0.0,WeatherDisplay:10.37,2013-01-25 06:46:00,
2013-01-25 01:51:00,-8.1,-11.9,30.53,NNW,336,0.0,0.0,83,0.00,,BKN250,0.00,0.00,VWS V14.01,2013-01-25 06:51:00,
2013-01-25 01:56:00,-7.9,-11.4,30.53,NNW,336,0.0,0.0,84,0.00,,BKN250,0.00,0.00,VWS V14.01,2013-01-25 06:56:00,
2013-01-25 02:01:00,-7.4,-12.2,30.52,NW,326,0.0,0.0,79,0.00,BKN,OVC,0.00,0.0,WeatherDisplay:10.37,2013-01-25 07:01:00,
2013-01-25 02:06:00,-7.6,-11.1,30.54,NNW,336,0.0,0.0,84,0.00,,BKN250,0.00,0.00,VWS V14.01,2013-01-25 07:06:00,
2013-01-25 02:11:00,-7.3,-10.8,30.54,NNW,336,0.0,0.0,84,0.00,,BKN250,0.00,0.00,VWS V14.01,2013-01-25 07:11:00,
2013-01-25 02:16:00,-6.4,-11.0,30.52,NW,326,0.0,1.1,80,0.00,BKN,OVC,0.00,0.0,WeatherDisplay:10.37,2013-01-25 07:16:00,
2013-01-25 02:21:00,-6.0,-10.3,30.52,NW,326,0.0,1.1,81,0.00,BKN,OVC,0.00,0.0,WeatherDisplay:10.37,2013-01-25 07:21:00,
2013-01-25 02:26:00,-6.7,-10.3,30.54,NNW,336,0.0,0.0,84,0.00,,BKN250,0.00,0.00,VWS V14.01,2013-01-25 07:26:00,
2013-01-25 02:31:00,-5.4,-9.7,30.52,NW,326,0.0,0.0,81,0.00,BKN,OVC,0.00,0.0,WeatherDisplay:10.37,2013-01-25 07:31:00,
2013-01-25 02:36:00,-6.6,-10.2,30.54,NNW,336,0.0,0.0,84,0.00,,BKN250,0.00,0.00,VWS V14.01,2013-01-25 07:36:00,
2013-01-25 02:41:00,-4.9,-9.2,30.53,NW,326,0.0,2.3,81,0.00,BKN,OVC,0.00,0.0,WeatherDisplay:10.37,2013-01-25 07:41:00,
2013-01-25 02:46:00,-6.2,-9.5,30.54,NNW,336,0.0,0.0,85,0.00,,BKN250,0.00,0.00,VWS V14.01,2013-01-25 07:46:00,
2013-01-25 02:51:00,-4.5,-8.8,30.52,NW,326,0.0,0.0,81,0.00,BKN,OVC,0.00,0.0,WeatherDisplay:10.37,2013-01-25 07:51:00,
2013-01-25 02:56:00,-5.9,-9.2,30.54,NNW,336,0.0,0.0,85,0.00,,BKN250,0.00,0.00,VWS V14.01,2013-01-25 07:56:00,
2013-01-25 03:01:00,-5.8,-9.1,30.53,NNW,336,0.0,0.0,85,0.00,,BKN250,0.00,0.00,VWS V14.01,2013-01-25 08:01:00,
2013-01-25 03:05:00,-5.7,-9.0,30.53,NNW,336,0.0,0.0,85,0.00,,BKN250,0.00,0.00,VWS V14.01,2013-01-25 08:05:00,
2013-01-25 03:10:00,-4.2,-8.8,30.51,NW,326,0.0,0.0,80,0.00,BKN,OVC,0.00,0.0,WeatherDisplay:10.37,2013-01-25 08:10:00,
2013-01-25 03:15:00,-5.3,-8.6,30.52,NNW,336,0.0,0.0,85,0.00,,BKN250,0.00,0.00,VWS V14.01,2013-01-25 08:15:00,
2013-01-25 03:20:00,-4.2,-8.8,30.51,NW,326,0.0,0.0,80,0.00,BKN,OVC,0.00,0.0,WeatherDisplay:10.37,2013-01-25 08:20:00,
2013-01-25 03:25:00,-4.2,-8.8,30.50,NW,326,0.0,1.1,80,0.00,BKN,OVC,0.00,0.0,WeatherDisplay:10.37,2013-01-25 08:25:00,
2013-01-25 03:30:00,-4.2,-8.8,30.50,NW,326,0.3,2.3,80,0.00,BKN,OVC,0.00,0.0,WeatherDisplay:10.37,2013-01-25 08:30:00,
2013-01-25 03:35:00,-4.6,-7.7,30.52,ESE,111,1.0,1.0,86,0.00,,BKN250,0.00,0.00,VWS V14.01,2013-01-25 08:35:00,
2013-01-25 03:40:00,-3.9,-8.5,30.50,NW,326,0.0,2.3,80,0.00,BKN,OVC,0.00,0.0,WeatherDisplay:10.37,2013-01-25 08:40:00,
2013-01-25 03:45:00,-4.3,-7.7,30.52,ESE,114,0.0,0.0,85,0.00,,BKN250,0.00,0.00,VWS V14.01,2013-01-25 08:45:00,
2013-01-25 03:50:00,-3.6,-8.0,30.50,NW,326,0.3,2.3,81,0.00,BKN,OVC,0.00,0.0,WeatherDisplay:10.37,2013-01-25 08:50:00,
2013-01-25 03:55:00,-3.4,-6.5,30.51,SE,129,0.0,1.0,86,0.00,,BKN250,0.00,0.00,VWS V14.01,2013-01-25 08:55:00,
2013-01-25 04:00:00,-3.0,-7.4,30.50,NW,326,0.0,0.0,81,0.00,BKN,OVC,0.00,0.0,WeatherDisplay:10.37,2013-01-25 09:00:00,
2013-01-25 04:05:00,-2.7,-5.8,30.51,SE,130,0.0,0.0,86,0.00,,BKN250,0.00,0.00,VWS V14.01,2013-01-25 09:05:00,
2013-01-25 04:10:00,-2.7,-7.1,30.49,NW,326,0.0,0.0,81,0.00,BKN,OVC,0.00,0.0,WeatherDisplay:10.37,2013-01-25 09:10:00,
2013-01-25 04:15:00,-2.3,-5.4,30.50,SE,129,1.0,1.0,86,0.00,,BKN250,0.00,0.00,VWS V14.01,2013-01-25 09:15:00,
2013-01-25 04:20:00,-2.4,-6.8,30.48,NW,326,0.1,1.1,81,0.00,BKN,OVC,0.00,0.0,WeatherDisplay:10.37,2013-01-25 09:20:00,
2013-01-25 04:25:00,-1.8,-5.0,30.49,SE,129,0.0,0.0,86,0.00,,BKN250,0.00,0.00,VWS V14.01,2013-01-25 09:25:00,
2013-01-25 04:30:00,-2.2,-6.6,30.47,NW,326,0.0,1.1,81,0.00,BKN,OVC,0.00,0.0,WeatherDisplay:10.37,2013-01-25 09:30:00,
2013-01-25 04:35:00,-1.5,-4.7,30.48,SE,130,0.0,0.0,86,0.00,,BKN250,0.00,0.00,VWS V14.01,2013-01-25 09:35:00,
2013-01-25 04:40:00,-1.3,-4.5,30.48,SE,130,1.0,1.0,86,0.00,,BKN250,0.00,0.00,VWS V14.01,2013-01-25 09:40:00,
2013-01-25 04:45:00,-1.7,-6.1,30.46,NNW,329,0.7,3.5,81,0.00,BKN,OVC,0.00,0.0,WeatherDisplay:10.37,2013-01-25 09:45:00,
2013-01-25 04:50:00,-0.8,-4.0,30.48,ESE,117,1.0,2.0,86,0.00,,BKN250,0.00,0.00,VWS V14.01,2013-01-25 09:50:00,
2013-01-25 04:55:00,-0.6,-3.8,30.47,ESE,121,1.0,1.0,86,0.00,,BKN250,0.00,0.00,VWS V14.01,2013-01-25 09:55:00,
2013-01-25 05:00:00,-0.4,-3.6,30.46,ESE,120,1.0,1.0,86,0.00,,BKN250,0.00,0.00,VWS V14.01,2013-01-25 10:00:00,
2013-01-25 05:05:00,-1.1,-5.5,30.44,NNW,330,0.7,2.0,81,0.00,BKN,OVC,0.00,0.0,WeatherDisplay:10.37,2013-01-25 10:05:00,
2013-01-25 05:10:00,-0.2,-3.4,30.46,ESE,120,0.0,0.0,86,0.00,,BKN250,0.00,0.00,VWS V14.01,2013-01-25 10:10:00,
2013-01-25 05:15:00,-0.9,-5.3,30.44,NNW,330,0.0,1.1,81,0.00,BKN,OVC,0.00,0.0,WeatherDisplay:10.37,2013-01-25 10:15:00,
2013-01-25 05:20:00,-0.8,-5.2,30.44,NNW,330,0.1,1.0,81,0.00,BKN,OVC,0.00,0.0,WeatherDisplay:10.37,2013-01-25 10:20:00,
2013-01-25 05:25:00,0.1,-3.3,30.46,ESE,120,0.0,0.0,85,0.00,,BKN250,0.00,0.00,VWS V14.01,2013-01-25 10:25:00,
2013-01-25 05:30:00,0.1,-3.3,30.45,ESE,120,1.0,1.0,85,0.00,,BKN250,0.00,0.00,VWS V14.01,2013-01-25 10:30:00,
2013-01-25 05:35:00,0.2,-3.0,30.45,ESE,120,1.0,1.0,86,0.00,,BKN250,0.00,0.00,VWS V14.01,2013-01-25 10:35:00,
2013-01-25 05:40:00,0.3,-2.9,30.46,ESE,120,1.0,1.0,86,0.00,,BKN250,0.00,0.00,VWS V14.01,2013-01-25 10:40:00,
2013-01-25 05:45:00,0.4,-2.8,30.46,ESE,120,0.0,0.0,86,0.00,,BKN250,0.00,0.00,VWS V14.01,2013-01-25 10:45:00,
2013-01-25 05:50:00,-0.2,-4.6,30.44,NNW,330,0.7,2.3,81,0.00,BKN,OVC,0.00,0.0,WeatherDisplay:10.37,2013-01-25 10:50:00,
2013-01-25 05:55:00,0.7,-2.5,30.46,SE,125,0.0,1.0,86,0.00,,BKN250,0.00,0.00,VWS V14.01,2013-01-25 10:55:00,
2013-01-25 06:00:00,0.4,-3.8,30.44,NNW,330,0.4,2.3,82,0.00,BKN,OVC,0.00,0.0,WeatherDisplay:10.37,2013-01-25 11:00:00,
2013-01-25 06:05:00,1.1,-2.1,30.46,SE,126,0.0,1.0,86,0.00,,BKN250,0.00,0.00,VWS V14.01,2013-01-25 11:05:00,
2013-01-25 06:10:00,1.3,-1.9,30.45,SE,126,0.0,0.0,86,0.00,,BKN250,0.00,0.00,VWS V14.01,2013-01-25 11:10:00,
2013-01-25 06:15:00,1.1,-3.1,30.43,NNW,330,0.0,1.1,82,0.00,BKN,OVC,0.00,0.0,WeatherDisplay:10.37,2013-01-25 11:15:00,
2013-01-25 06:20:00,1.9,-1.1,30.45,SE,126,0.0,1.0,87,0.00,,BKN250,0.00,0.00,VWS V14.01,2013-01-25 11:20:00,
2013-01-25 06:25:00,1.5,-2.7,30.43,NNW,331,0.0,2.3,82,0.00,BKN,OVC,0.00,0.0,WeatherDisplay:10.37,2013-01-25 11:25:00,
2013-01-25 06:30:00,2.2,-1.0,30.44,SE,126,0.0,2.0,86,0.00,,BKN250,0.00,0.00,VWS V14.01,2013-01-25 11:30:00,
2013-01-25 06:35:00,2.3,-0.9,30.44,SE,126,2.0,2.0,86,0.00,,BKN250,0.00,0.00,VWS V14.01,2013-01-25 11:35:00,
2013-01-25 06:40:00,2.4,-0.8,30.44,SE,134,1.0,1.0,86,0.00,,OVC130,0.00,0.00,VWS V14.01,2013-01-25 11:40:00,
2013-01-25 06:45:00,2.5,-0.7,30.44,SE,136,0.0,0.0,86,0.00,,OVC130,0.00,0.00,VWS V14.01,2013-01-25 11:45:00,
2013-01-25 06:50:00,2.6,-0.6,30.44,SE,143,1.0,2.0,86,0.00,,OVC130,0.00,0.00,VWS V14.01,2013-01-25 11:50:00,
2013-01-25 06:55:00,2.2,-2.0,30.41,NNW,332,0.2,3.5,82,0.00,OVC,,0.00,0.0,WeatherDisplay:10.37,2013-01-25 11:55:00,
2013-01-25 07:00:00,2.4,-1.8,30.41,NNW,332,0.9,2.3,82,0.00,OVC,,0.00,0.0,WeatherDisplay:10.37,2013-01-25 12:00:00,
2013-01-25 07:05:00,3.1,0.1,30.43,SSE,152,1.0,1.0,87,0.00,,OVC130,0.00,0.00,VWS V14.01,2013-01-25 12:05:00,
2013-01-25 07:10:00,3.3,0.3,30.43,SSE,154,3.0,3.0,87,0.00,,OVC130,0.00,0.00,VWS V14.01,2013-01-25 12:10:00,
2013-01-25 07:15:00,2.9,-1.3,30.41,NNW,332,1.3,4.6,82,0.00,OVC,,0.00,0.0,WeatherDisplay:10.37,2013-01-25 12:15:00,
2013-01-25 07:20:00,3.5,0.3,30.43,SE,140,0.0,1.0,86,0.00,,OVC220,0.00,0.00,VWS V14.01,2013-01-25 12:20:00,
2013-01-25 07:25:00,3.7,0.7,30.42,ESE,121,0.0,1.0,87,0.00,,OVC220,0.00,0.00,VWS V14.01,2013-01-25 12:25:00,
2013-01-25 07:30:00,3.8,0.8,30.42,SSE,148,1.0,1.0,87,0.00,,OVC130,0.00,0.00,VWS V14.01,2013-01-25 12:30:00,
2013-01-25 07:35:00,4.0,0.8,30.42,ESE,121,1.0,1.0,86,0.00,,OVC130,0.00,0.00,VWS V14.01,2013-01-25 12:35:00,
2013-01-25 07:40:00,4.0,0.8,30.42,ESE,121,0.0,0.0,86,0.00,,OVC130,0.00,0.00,VWS V14.01,2013-01-25 12:40:00,
2013-01-25 07:45:00,3.6,-0.9,30.40,NNE,28,0.5,2.3,81,0.00,OVC,,0.00,5.0,WeatherDisplay:10.37,2013-01-25 12:45:00,
2013-01-25 07:50:00,4.1,0.9,30.42,SE,126,0.0,0.0,86,0.00,,OVC130,0.00,11.00,VWS V14.01,2013-01-25 12:50:00,
2013-01-25 07:55:00,4.1,0.9,30.41,SE,126,0.0,0.0,86,0.00,,OVC130,0.00,14.00,VWS V14.01,2013-01-25 12:55:00,
2013-01-25 08:00:00,3.6,-0.7,30.39,NNE,28,0.8,2.3,82,0.00,OVC,,0.00,16.0,WeatherDisplay:10.37,2013-01-25 13:00:00,
2013-01-25 08:05:00,4.2,0.9,30.41,SE,130,0.0,0.0,86,0.00,,OVC130,0.00,21.00,VWS V14.01,2013-01-25 13:05:00,
2013-01-25 08:10:00,3.9,-0.4,30.39,NE,35,1.6,3.5,82,0.00,OVC,,0.00,26.0,WeatherDisplay:10.37,2013-01-25 13:10:00,
2013-01-25 08:15:00,4.6,1.3,30.41,ESE,118,0.0,0.0,86,0.00,,OVC130,0.00,33.00,VWS V14.01,2013-01-25 13:15:00,
2013-01-25 08:20:00,4.3,0.0,30.39,NE,42,0.6,2.3,82,0.00,OVC,,0.00,35.0,WeatherDisplay:10.37,2013-01-25 13:20:00,
2013-01-25 08:25:00,5.1,1.8,30.40,ESE,121,1.0,2.0,86,0.00,,OVC130,0.00,42.00,VWS V14.01,2013-01-25 13:25:00,
2013-01-25 08:30:00,4.8,0.5,30.38,NE,47,0.2,3.5,82,0.00,OVC,,0.00,49.0,WeatherDisplay:10.37,2013-01-25 13:30:00,
2013-01-25 08:35:00,5.6,2.3,30.40,SE,124,1.0,1.0,86,0.00,,OVC130,0.00,63.00,VWS V14.01,2013-01-25 13:35:00,
2013-01-25 08:40:00,5.3,1.0,30.38,NE,52,0.9,3.5,82,0.00,OVC,,0.00,65.0,WeatherDisplay:10.37,2013-01-25 13:40:00,
2013-01-25 08:45:00,6.0,2.7,30.39,SE,130,1.0,1.0,86,0.00,,OVC130,0.00,69.00,VWS V14.01,2013-01-25 13:45:00,
2013-01-25 08:50:00,5.9,1.6,30.38,ENE,61,1.8,4.0,82,0.00,OVC,,0.00,83.0,WeatherDisplay:10.37,2013-01-25 13:50:00,
2013-01-25 08:55:00,6.7,3.7,30.39,SE,142,3.0,3.0,87,0.00,,OVC130,0.00,105.00,VWS V14.01,2013-01-25 13:55:00,
2013-01-25 09:00:00,7.0,3.7,30.39,ESE,119,2.0,3.0,86,0.00,,OVC130,0.00,118.00,VWS V14.01,2013-01-25 14:00:00,
2013-01-25 09:05:00,6.9,2.6,30.37,ENE,63,1.0,3.5,82,0.00,OVC,,0.00,120.0,WeatherDisplay:10.37,2013-01-25 14:05:00,
2013-01-25 09:10:00,7.8,4.5,30.38,SE,134,3.0,5.0,86,0.00,,OVC130,0.00,116.00,VWS V14.01,2013-01-25 14:10:00,
2013-01-25 09:15:00,7.8,3.4,30.36,ENE,65,0.6,3.5,82,0.00,OVC,,0.00,118.0,WeatherDisplay:10.37,2013-01-25 14:15:00,
2013-01-25 09:20:00,8.5,5.2,30.37,SE,132,3.0,3.0,86,0.00,,OVC130,0.00,130.00,VWS V14.01,2013-01-25 14:20:00,
2013-01-25 09:25:00,8.3,3.7,30.36,East,85,2.2,8.1,81,0.00,OVC,,0.00,123.0,WeatherDisplay:10.37,2013-01-25 14:25:00,
2013-01-25 09:30:00,8.9,5.1,30.37,ESE,109,2.0,3.0,84,0.00,,OVC130,0.00,121.00,VWS V14.01,2013-01-25 14:30:00,
2013-01-25 09:35:00,8.6,3.7,30.35,East,88,2.5,6.0,80,0.00,OVC,,0.00,118.0,WeatherDisplay:10.37,2013-01-25 14:35:00,
2013-01-25 09:40:00,9.0,4.9,30.36,SE,134,0.0,3.0,83,0.00,,OVC200,0.00,118.00,VWS V14.01,2013-01-25 14:40:00,
2013-01-25 09:45:00,9.2,5.1,30.36,SE,128,1.0,2.0,83,0.00,,OVC200,0.00,116.00,VWS V14.01,2013-01-25 14:45:00,
2013-01-25 09:50:00,9.0,4.1,30.34,East,96,1.1,3.5,80,0.00,OVC,,0.00,116.0,WeatherDisplay:10.37,2013-01-25 14:50:00,
2013-01-25 09:55:00,9.7,5.6,30.36,South,173,3.0,5.0,83,0.00,,OVC200,0.00,120.00,VWS V14.01,2013-01-25 14:55:00,
2013-01-25 10:00:00,10.0,5.9,30.35,SE,131,4.0,6.0,83,0.00,,OVC200,0.00,123.00,VWS V14.01,2013-01-25 15:00:00,
2013-01-25 10:05:00,9.6,4.1,30.33,ESE,123,2.8,8.1,78,0.00,OVC,,0.00,121.0,WeatherDisplay:10.37,2013-01-25 15:05:00,
2013-01-25 10:10:00,10.4,6.0,30.34,SSE,162,1.0,3.0,82,0.00,,OVC200,0.00,128.00,VWS V14.01,2013-01-25 15:10:00,
2013-01-25 10:15:00,9.9,4.4,30.33,SE,135,1.4,3.5,78,0.00,OVC,,0.00,130.0,WeatherDisplay:10.37,2013-01-25 15:15:00,
2013-01-25 10:20:00,10.7,6.3,30.34,SE,135,4.0,4.0,82,0.00,,OVC200,0.00,155.00,VWS V14.01,2013-01-25 15:20:00,
2013-01-25 10:25:00,11.0,6.6,30.33,SSE,151,3.0,3.0,82,0.00,,OVC200,0.00,163.00,VWS V14.01,2013-01-25 15:25:00,
2013-01-25 10:30:00,10.8,5.0,30.32,SE,134,3.2,4.6,77,0.00,OVC,,0.00,165.0,WeatherDisplay:10.37,2013-01-25 15:30:00,
2013-01-25 10:35:00,11.1,5.3,30.31,SE,134,1.5,3.5,77,0.00,OVC,,0.00,171.0,WeatherDisplay:10.37,2013-01-25 15:35:00,
2013-01-25 10:40:00,12.0,7.0,30.33,SSE,168,1.0,4.0,80,0.00,,OVC150,0.00,179.00,VWS V14.01,2013-01-25 15:40:00,
2013-01-25 10:45:00,11.9,5.5,30.31,SE,133,1.4,4.6,75,0.00,OVC,,0.00,174.0,WeatherDisplay:10.37,2013-01-25 15:45:00,
2013-01-25 10:50:00,12.6,7.1,30.33,ESE,113,2.0,4.0,78,0.00,,OVC150,0.00,169.00,VWS V14.01,2013-01-25 15:50:00,
2013-01-25 10:55:00,12.8,7.0,30.32,SE,125,4.0,5.0,77,0.00,,OVC150,0.00,167.00,VWS V14.01,2013-01-25 15:55:00,
2013-01-25 11:00:00,13.0,6.9,30.32,SE,126,6.0,6.0,76,0.00,,OVC150,0.00,174.00,VWS V14.01,2013-01-25 16:00:00,
2013-01-25 11:05:00,13.1,7.0,30.32,SE,144,3.0,4.0,76,0.00,,OVC150,0.00,193.00,VWS V14.01,2013-01-25 16:05:00,
2013-01-25 11:10:00,13.0,5.7,30.30,SE,126,1.9,4.0,72,0.00,OVC,,0.00,211.0,WeatherDisplay:10.37,2013-01-25 16:10:00,
2013-01-25 11:15:00,13.8,7.7,30.32,SSE,149,3.0,3.0,76,0.00,,OVC150,0.00,234.00,VWS V14.01,2013-01-25 16:15:00,
2013-01-25 11:20:00,13.6,5.9,30.30,SE,146,6.3,10.4,71,0.00,OVC,,0.00,260.0,WeatherDisplay:10.37,2013-01-25 16:20:00,
2013-01-25 11:25:00,14.3,7.2,30.31,SE,140,4.0,6.0,73,0.00,,OVC150,0.00,264.00,VWS V14.01,2013-01-25 16:25:00,
2013-01-25 11:30:00,14.6,7.5,30.30,SE,132,2.0,5.0,73,0.00,,OVC150,0.00,241.00,VWS V14.01,2013-01-25 16:30:00,
2013-01-25 11:35:00,14.8,7.7,30.30,SE,142,2.0,5.0,73,0.00,,OVC150,0.00,227.00,VWS V14.01,2013-01-25 16:35:00,
2013-01-25 11:40:00,15.0,7.6,30.30,ESE,115,5.0,7.0,72,0.00,,OVC130,0.00,227.00,VWS V14.01,2013-01-25 16:40:00,
2013-01-25 11:45:00,15.1,7.4,30.30,SSE,156,2.0,5.0,71,0.00,,OVC130,0.00,230.00,VWS V14.01,2013-01-25 16:45:00,
2013-01-25 11:50:00,14.9,5.9,30.28,SE,132,2.8,8.1,67,0.00,OVC,,0.00,243.0,WeatherDisplay:10.37,2013-01-25 16:50:00,
2013-01-25 11:55:00,15.5,7.8,30.29,South,174,5.0,6.0,71,0.00,,OVC130,0.00,246.00,VWS V14.01,2013-01-25 16:55:00,
2013-01-25 12:00:00,15.7,8.0,30.28,South,169,4.0,5.0,71,0.00,,OVC130,0.00,243.00,VWS V14.01,2013-01-25 17:00:00,
2013-01-25 12:05:00,15.8,7.8,30.27,SSE,152,4.0,5.0,70,0.00,,OVC130,0.00,244.00,VWS V14.01,2013-01-25 17:05:00,
2013-01-25 12:10:00,15.9,7.9,30.27,SE,126,2.0,4.0,70,0.00,,OVC130,0.00,237.00,VWS V14.01,2013-01-25 17:10:00,
2013-01-25 12:15:00,15.5,5.8,30.25,SE,145,3.9,6.0,65,0.00,OVC,,0.00,237.0,WeatherDisplay:10.37,2013-01-25 17:15:00,
2013-01-25 12:20:00,16.1,7.7,30.26,ESE,123,3.0,3.0,69,0.00,,OVC130,0.00,244.00,VWS V14.01,2013-01-25 17:20:00,
2013-01-25 12:25:00,16.4,8.0,30.26,SSE,157,1.0,1.0,69,0.00,,OVC130,0.00,253.00,VWS V14.01,2013-01-25 17:25:00,
2013-01-25 12:30:00,16.6,8.2,30.26,SSE,157,0.0,3.0,69,0.00,,OVC130,0.00,246.00,VWS V14.01,2013-01-25 17:30:00,
2013-01-25 12:35:00,16.7,8.0,30.26,South,169,2.0,3.0,68,0.00,,OVC130,0.00,248.00,VWS V14.01,2013-01-25 17:35:00,
2013-01-25 12:40:00,16.4,6.7,30.24,SE,146,3.1,6.9,65,0.00,OVC,,0.00,269.0,WeatherDisplay:10.37,2013-01-25 17:40:00,
2013-01-25 12:45:00,17.0,8.6,30.25,SSE,155,3.0,5.0,69,0.00,,OVC130,0.00,246.00,VWS V14.01,2013-01-25 17:45:00,
2013-01-25 12:50:00,17.0,7.9,30.25,South,187,1.0,3.0,67,0.00,,OVC130,0.00,227.00,VWS V14.01,2013-01-25 17:50:00,
2013-01-25 12:55:00,17.0,7.9,30.24,SE,136,2.0,4.0,67,0.00,,OVC130,0.00,244.00,VWS V14.01,2013-01-25 17:55:00,
2013-01-25 13:00:00,16.5,6.4,30.22,SSE,151,2.5,5.0,64,0.00,OVC,,0.00,243.0,WeatherDisplay:10.37,2013-01-25 18:00:00,
2013-01-25 13:05:00,17.2,7.8,30.23,South,169,2.0,3.0,66,0.00,,OVC130,0.00,225.00,VWS V14.01,2013-01-25 18:05:00,
2013-01-25 13:10:00,16.8,6.0,30.22,SSE,152,0.3,3.5,62,0.00,OVC,,0.00,202.0,WeatherDisplay:10.37,2013-01-25 18:10:00,
2013-01-25 13:15:00,17.6,8.2,30.22,SSE,163,2.0,2.0,66,0.00,,OVC130,0.00,214.00,VWS V14.01,2013-01-25 18:15:00,
2013-01-25 13:20:00,16.9,6.1,30.20,SSE,152,1.3,3.5,62,0.00,OVC,,0.00,216.0,WeatherDisplay:10.37,2013-01-25 18:20:00,
2013-01-25 13:25:00,17.8,8.0,30.22,SE,124,2.0,3.0,65,0.00,,OVC130,0.00,213.00,VWS V14.01,2013-01-25 18:25:00,
2013-01-25 13:30:00,16.9,5.8,30.20,SE,146,2.5,4.6,61,0.00,OVC,,0.00,202.0,WeatherDisplay:10.37,2013-01-25 18:30:00,
2013-01-25 13:35:00,17.5,7.4,30.21,SE,138,1.0,3.0,64,0.00,,OVC110,0.00,167.00,VWS V14.01,2013-01-25 18:35:00,
2013-01-25 13:39:00,16.9,5.8,30.19,SE,144,2.0,4.0,61,0.00,OVC,,0.00,135.0,WeatherDisplay:10.37,2013-01-25 18:39:00,
2013-01-25 13:44:00,17.3,6.9,30.20,South,178,2.0,3.0,63,0.00,,OVC110,0.00,135.00,VWS V14.01,2013-01-25 18:44:00,
2013-01-25 13:49:00,16.8,5.7,30.19,SE,141,1.5,3.5,61,0.00,OVC,,0.00,142.0,WeatherDisplay:10.37,2013-01-25 18:49:00,
2013-01-25 13:54:00,17.5,7.1,30.20,East,97,1.0,1.0,63,0.00,,OVC110,0.00,128.00,VWS V14.01,2013-01-25 18:54:00,
2013-01-25 13:59:00,17.1,5.6,30.18,SE,141,0.9,3.5,60,0.00,OVC,,0.00,135.0,WeatherDisplay:10.37,2013-01-25 18:59:00,
2013-01-25 14:04:00,17.6,7.2,30.19,ESE,107,1.0,1.0,63,0.00,,OVC110,0.00,137.00,VWS V14.01,2013-01-25 19:04:00,
2013-01-25 14:09:00,17.6,7.2,30.19,ESE,119,2.0,4.0,63,0.00,,OVC110,0.00,132.00,VWS V14.01,2013-01-25 19:09:00,
2013-01-25 14:14:00,17.6,7.2,30.19,SE,140,4.0,5.0,63,0.00,,OVC110,0.00,116.00,VWS V14.01,2013-01-25 19:14:00,
2013-01-25 14:19:00,17.0,4.7,30.18,SE,140,2.1,4.0,58,0.00,OVC,,0.00,107.0,WeatherDisplay:10.37,2013-01-25 19:19:00,
2013-01-25 14:24:00,17.7,6.6,30.19,SSE,163,1.0,1.0,61,0.00,,OVC110,0.00,116.00,VWS V14.01,2013-01-25 19:24:00,
2013-01-25 14:29:00,17.7,6.9,30.18,SSE,155,1.0,2.0,62,0.00,,OVC110,0.00,120.00,VWS V14.01,2013-01-25 19:29:00,
2013-01-25 14:34:00,17.6,6.4,30.18,SE,128,3.0,4.0,61,0.00,,OVC110,0.00,113.00,VWS V14.01,2013-01-25 19:34:00,
2013-01-25 14:39:00,17.4,5.9,30.18,ESE,110,1.0,3.0,60,0.00,,OVC060,0.00,109.00,VWS V14.01,2013-01-25 19:39:00,
2013-01-25 14:44:00,17.3,6.2,30.17,SE,128,2.0,3.0,61,0.00,,OVC060,0.00,109.00,VWS V14.01,2013-01-25 19:44:00,
2013-01-25 14:49:00,16.9,5.0,30.15,SE,137,3.4,4.0,59,0.00,OVC,,0.00,105.0,WeatherDisplay:10.37,2013-01-25 19:49:00,
2013-01-25 14:54:00,17.2,6.4,30.16,East,101,1.0,2.0,62,0.00,,OVC060,0.00,109.00,VWS V14.01,2013-01-25 19:54:00,
2013-01-25 14:59:00,16.9,4.3,30.15,SE,137,2.6,4.0,57,0.00,OVC,,0.00,109.0,WeatherDisplay:10.37,2013-01-25 19:59:00,
2013-01-25 15:04:00,17.2,6.1,30.16,SSE,148,3.0,3.0,61,0.00,,OVC060,0.00,100.00,VWS V14.01,2013-01-25 20:04:00,
2013-01-25 15:09:00,17.3,6.5,30.16,SSE,156,1.0,2.0,62,0.00,,OVC060,0.00,98.00,VWS V14.01,2013-01-25 20:09:00,
2013-01-25 15:14:00,16.7,5.2,30.14,SE,138,0.3,5.8,60,0.00,OVC,,0.00,91.0,WeatherDisplay:10.37,2013-01-25 20:14:00,
2013-01-25 15:19:00,17.3,7.2,30.16,SE,136,1.0,1.0,64,0.00,,OVC060,0.00,83.00,VWS V14.01,2013-01-25 20:19:00,
2013-01-25 15:24:00,17.2,7.5,30.16,SE,146,1.0,2.0,65,0.00,,OVC060,0.00,74.00,VWS V14.01,2013-01-25 20:24:00,
2013-01-25 15:29:00,16.2,5.8,30.14,SE,140,1.8,4.0,63,0.00,-SN,OVC,0.00,77.0,WeatherDisplay:10.37,2013-01-25 20:29:00,
2013-01-25 15:34:00,16.9,7.8,30.15,SE,142,2.0,2.0,67,0.00,,OVC060,0.00,81.00,VWS V14.01,2013-01-25 20:34:00,
2013-01-25 15:39:00,16.1,6.4,30.13,SE,140,2.1,4.0,65,0.00,-SN,OVC,0.00,74.0,WeatherDisplay:10.37,2013-01-25 20:39:00,
2013-01-25 15:44:00,16.4,8.3,30.15,South,173,4.0,4.0,70,0.00,,,0.00,77.00,VWS V14.01,2013-01-25 20:44:00,
2013-01-25 15:49:00,15.7,6.7,30.13,SE,140,2.8,4.6,67,0.00,-SN,OVC,0.00,93.0,WeatherDisplay:10.37,2013-01-25 20:49:00,
2013-01-25 15:54:00,16.2,9.1,30.15,SE,136,2.0,3.0,73,0.00,,,0.00,88.00,VWS V14.01,2013-01-25 20:54:00,
2013-01-25 15:59:00,16.1,9.3,30.14,SE,130,2.0,3.0,74,0.00,,,0.00,60.00,VWS V14.01,2013-01-25 20:59:00,
2013-01-25 16:04:00,16.0,9.5,30.14,SE,130,3.0,3.0,75,0.00,,,0.00,47.00,VWS V14.01,2013-01-25 21:04:00,
2013-01-25 16:09:00,15.8,9.6,30.14,SE,136,2.0,3.0,76,0.00,,,0.00,39.00,VWS V14.01,2013-01-25 21:09:00,
2013-01-25 16:14:00,15.7,9.8,30.14,SE,142,1.0,2.0,77,0.00,,,0.00,37.00,VWS V14.01,2013-01-25 21:14:00,
2013-01-25 16:19:00,15.0,8.2,30.12,SE,140,2.0,3.5,74,0.00,-SN,OVC,0.00,33.0,WeatherDisplay:10.37,2013-01-25 21:19:00,
2013-01-25 16:24:00,15.5,10.2,30.14,ESE,113,2.0,2.0,79,0.00,,,0.00,33.00,VWS V14.01,2013-01-25 21:24:00,
2013-01-25 16:29:00,15.3,10.2,30.14,East,98,1.0,1.0,80,0.00,,,0.00,35.00,VWS V14.01,2013-01-25 21:29:00,
2013-01-25 16:34:00,14.7,8.5,30.12,SE,140,1.4,2.3,76,0.00,-SN,OVC,0.00,44.0,WeatherDisplay:10.37,2013-01-25 21:34:00,
2013-01-25 16:39:00,15.1,10.3,30.14,East,96,0.0,1.0,81,0.00,,,0.00,51.00,VWS V14.01,2013-01-25 21:39:00,
2013-01-25 16:44:00,15.0,10.2,30.14,East,96,1.0,2.0,81,0.00,,,0.00,53.00,VWS V14.01,2013-01-25 21:44:00,
2013-01-25 16:49:00,14.9,10.4,30.14,East,92,1.0,1.0,82,0.00,,,0.00,37.00,VWS V14.01,2013-01-25 21:49:00,
2013-01-25 16:54:00,14.3,8.7,30.12,SE,140,0.8,2.0,78,0.00,-SN,OVC,0.00,21.0,WeatherDisplay:10.37,2013-01-25 21:54:00,
2013-01-25 16:59:00,14.8,10.3,30.14,ESE,103,2.0,2.0,82,0.00,,,0.00,18.00,VWS V14.01,2013-01-25 21:59:00,
2013-01-25 17:04:00,14.7,10.2,30.14,ESE,104,0.0,0.0,82,0.00,,,0.00,12.00,VWS V14.01,2013-01-25 22:04:00,
2013-01-25 17:09:00,14.7,10.2,30.13,ESE,104,1.0,1.0,82,0.00,,,0.00,12.00,VWS V14.01,2013-01-25 22:09:00,
2013-01-25 17:14:00,14.0,8.7,30.11,SE,140,2.3,3.5,79,0.00,-SN,OVC,0.00,11.0,WeatherDisplay:10.37,2013-01-25 22:14:00,
2013-01-25 17:19:00,14.0,8.7,30.11,SE,140,0.3,3.5,79,0.00,-SN,OVC,0.00,5.0,WeatherDisplay:10.37,2013-01-25 22:19:00,
2013-01-25 17:24:00,14.5,10.3,30.12,ESE,111,1.0,1.0,83,0.00,,,0.00,0.00,VWS V14.01,2013-01-25 22:24:00,
2013-01-25 17:29:00,13.8,8.5,30.11,SE,140,1.2,2.3,79,0.00,-SN,OVC,0.00,0.0,WeatherDisplay:10.37,2013-01-25 22:29:00,
2013-01-25 17:34:00,14.3,10.1,30.12,ESE,111,1.0,1.0,83,0.00,,,0.00,0.00,VWS V14.01,2013-01-25 22:34:00,
2013-01-25 17:39:00,14.2,10.3,30.12,ESE,111,0.0,0.0,84,0.00,,,0.00,0.00,VWS V14.01,2013-01-25 22:39:00,
2013-01-25 17:44:00,14.2,10.3,30.12,ESE,111,1.0,1.0,84,0.00,,,0.00,0.00,VWS V14.01,2013-01-25 22:44:00,
2013-01-25 17:49:00,13.5,8.5,30.10,SE,140,0.9,2.3,80,0.00,-SN,OVC,0.00,0.0,WeatherDisplay:10.37,2013-01-25 22:49:00,
2013-01-25 17:54:00,14.0,10.1,30.12,East,100,1.0,1.0,84,0.00,,,0.00,0.00,VWS V14.01,2013-01-25 22:54:00,
2013-01-25 17:59:00,14.0,10.1,30.12,East,100,1.0,1.0,84,0.00,,,0.00,0.00,VWS V14.01,2013-01-25 22:59:00,
2013-01-25 18:04:00,13.3,8.3,30.10,SE,140,0.1,2.3,80,0.00,-SN,OVC,0.00,0.0,WeatherDisplay:10.37,2013-01-25 23:04:00,
2013-01-25 18:09:00,13.2,8.2,30.11,SE,140,0.5,2.3,80,0.00,-SN,OVC,0.00,0.0,WeatherDisplay:10.37,2013-01-25 23:09:00,
2013-01-25 18:14:00,13.2,8.2,30.11,SE,140,0.0,0.0,80,0.00,-SN,OVC,0.00,0.0,WeatherDisplay:10.37,2013-01-25 23:14:00,
2013-01-25 18:19:00,13.1,8.1,30.10,SE,140,0.0,0.0,80,0.00,-SN,OVC,0.00,0.0,WeatherDisplay:10.37,2013-01-25 23:19:00,
2013-01-25 18:24:00,13.0,8.0,30.10,SE,140,0.0,0.0,80,0.00,-SN,OVC,0.00,0.0,WeatherDisplay:10.37,2013-01-25 23:24:00,
2013-01-25 18:29:00,12.9,7.9,30.11,SE,140,0.0,0.0,80,0.00,-SN,OVC,0.00,0.0,WeatherDisplay:10.37,2013-01-25 23:29:00,
2013-01-25 18:34:00,12.8,7.8,30.10,SE,140,0.0,0.0,80,0.00,-SN,OVC,0.00,0.0,WeatherDisplay:10.37,2013-01-25 23:34:00,
2013-01-25 18:39:00,12.7,7.7,30.11,SE,140,0.0,1.1,80,0.00,-SN,OVC,0.00,0.0,WeatherDisplay:10.37,2013-01-25 23:39:00,
2013-01-25 18:44:00,12.6,7.6,30.11,SE,140,0.0,0.0,80,0.00,-SN,OVC,0.00,0.0,WeatherDisplay:10.37,2013-01-25 23:44:00,
2013-01-25 18:49:00,12.5,7.8,30.10,SE,140,0.0,0.0,81,0.00,-SN,OVC,0.00,0.0,WeatherDisplay:10.37,2013-01-25 23:49:00,
2013-01-25 18:54:00,12.3,7.6,30.10,SE,140,0.0,0.0,81,0.00,-SN,OVC,0.00,0.0,WeatherDisplay:10.37,2013-01-25 23:54:00,
2013-01-25 18:59:00,12.2,7.2,30.10,SE,140,0.0,0.0,80,0.00,-SN,OVC,0.00,0.0,WeatherDisplay:10.37,2013-01-25 23:59:00,
2013-01-25 19:04:00,12.0,7.3,30.10,SE,140,0.0,0.0,81,0.00,-SN,OVC,0.00,0.0,WeatherDisplay:10.37,2013-01-26 00:04:00,
2013-01-25 19:09:00,11.9,7.2,30.10,SE,140,0.0,0.0,81,0.00,-SN,OVC,0.00,0.0,WeatherDisplay:10.37,2013-01-26 00:09:00,
2013-01-25 19:14:00,11.7,7.0,30.10,SE,140,0.0,0.0,81,0.00,-SN,OVC,0.00,0.0,WeatherDisplay:10.37,2013-01-26 00:14:00,
2013-01-25 19:19:00,11.5,6.8,30.10,SE,140,0.0,0.0,81,0.00,-SN,OVC,0.00,0.0,WeatherDisplay:10.37,2013-01-26 00:19:00,
2013-01-25 19:24:00,11.3,6.6,30.10,SE,140,0.0,0.0,81,0.00,-SN,OVC,0.00,0.0,WeatherDisplay:10.37,2013-01-26 00:24:00,
2013-01-25 19:29:00,11.2,6.5,30.10,SE,140,0.0,0.0,81,0.00,-SN,OVC,0.00,0.0,WeatherDisplay:10.37,2013-01-26 00:29:00,
2013-01-25 19:34:00,11.0,6.3,30.10,SE,140,0.0,0.0,81,0.00,-SN,OVC,0.00,0.0,WeatherDisplay:10.37,2013-01-26 00:34:00,
2013-01-25 19:39:00,10.9,6.2,30.09,SE,140,0.0,0.0,81,0.00,-SN,OVC,0.00,0.0,WeatherDisplay:10.37,2013-01-26 00:39:00,
2013-01-25 19:44:00,10.7,6.0,30.09,SE,140,0.0,0.0,81,0.00,-SN,OVC,0.00,0.0,WeatherDisplay:10.37,2013-01-26 00:44:00,
2013-01-25 19:49:00,10.6,6.2,30.09,SE,140,0.0,0.0,82,0.00,-SN,OVC,0.00,0.0,WeatherDisplay:10.37,2013-01-26 00:49:00,
2013-01-25 19:54:00,10.5,6.1,30.09,SE,140,0.0,0.0,82,0.00,-SN,OVC,0.00,0.0,WeatherDisplay:10.37,2013-01-26 00:54:00,
2013-01-25 19:59:00,10.5,6.1,30.09,SE,140,0.0,0.0,82,0.00,-SN,OVC,0.00,0.0,WeatherDisplay:10.37,2013-01-26 00:59:00,
2013-01-25 20:04:00,10.4,6.0,30.10,SE,140,0.0,0.0,82,0.00,-SN,OVC,0.00,0.0,WeatherDisplay:10.37,2013-01-26 01:04:00,
2013-01-25 20:10:00,10.3,5.9,30.10,SE,140,0.0,0.0,82,0.00,-SN,OVC,0.00,0.0,WeatherDisplay:10.37,2013-01-26 01:10:00,
2013-01-25 20:15:00,10.2,5.8,30.10,SE,140,0.0,0.0,82,0.00,-SN,OVC,0.00,0.0,WeatherDisplay:10.37,2013-01-26 01:15:00,
2013-01-25 20:20:00,10.1,5.7,30.10,SE,140,0.0,0.0,82,0.00,-SN,OVC,0.00,0.0,WeatherDisplay:10.37,2013-01-26 01:20:00,
2013-01-25 20:25:00,10.0,5.6,30.10,SE,140,0.0,0.0,82,0.00,-SN,OVC,0.00,0.0,WeatherDisplay:10.37,2013-01-26 01:25:00,
2013-01-25 20:30:00,10.0,5.9,30.10,SE,140,0.0,0.0,83,0.00,-SN,OVC,0.00,0.0,WeatherDisplay:10.37,2013-01-26 01:30:00,
2013-01-25 20:35:00,10.0,5.9,30.10,SE,140,0.0,0.0,83,0.00,-SN,OVC,0.00,0.0,WeatherDisplay:10.37,2013-01-26 01:35:00,
2013-01-25 20:40:00,10.0,5.9,30.09,SE,140,0.0,0.0,83,0.00,-SN,OVC,0.00,0.0,WeatherDisplay:10.37,2013-01-26 01:40:00,
2013-01-25 20:45:00,9.9,5.8,30.10,SE,140,0.0,0.0,83,0.00,-SN,OVC,0.00,0.0,WeatherDisplay:10.37,2013-01-26 01:45:00,
2013-01-25 20:50:00,9.8,5.7,30.09,SE,140,0.0,0.0,83,0.00,-SN,OVC,0.00,0.0,WeatherDisplay:10.37,2013-01-26 01:50:00,
2013-01-25 20:55:00,9.7,5.6,30.09,SE,140,0.0,0.0,83,0.00,-SN,OVC,0.00,0.0,WeatherDisplay:10.37,2013-01-26 01:55:00,
2013-01-25 21:00:00,9.6,5.5,30.09,SE,140,0.0,0.0,83,0.00,-SN,OVC,0.00,0.0,WeatherDisplay:10.37,2013-01-26 02:00:00,
2013-01-25 21:05:00,9.5,5.4,30.09,SE,140,0.0,0.0,83,0.00,-SN,OVC,0.00,0.0,WeatherDisplay:10.37,2013-01-26 02:05:00,
2013-01-25 21:10:00,9.3,5.2,30.09,SE,140,0.0,0.0,83,0.00,-SN,OVC,0.00,0.0,WeatherDisplay:10.37,2013-01-26 02:10:00,
2013-01-25 21:15:00,9.1,4.7,30.09,SE,140,0.0,0.0,82,0.00,-SN,OVC,0.00,0.0,WeatherDisplay:10.37,2013-01-26 02:15:00,
2013-01-25 21:20:00,8.9,4.5,30.09,SE,140,0.0,0.0,82,0.00,-SN,OVC,0.00,0.0,WeatherDisplay:10.37,2013-01-26 02:20:00,
2013-01-25 21:25:00,8.8,4.7,30.09,SE,140,0.0,0.0,83,0.00,-SN,OVC,0.00,0.0,WeatherDisplay:10.37,2013-01-26 02:25:00,
2013-01-25 21:30:00,8.6,4.5,30.09,SE,140,0.0,0.0,83,0.00,-SN,OVC,0.00,0.0,WeatherDisplay:10.37,2013-01-26 02:30:00,
2013-01-25 21:35:00,8.5,4.1,30.09,SE,140,0.0,0.0,82,0.00,-SN,OVC,0.00,0.0,WeatherDisplay:10.37,2013-01-26 02:35:00,
2013-01-25 21:40:00,8.4,4.0,30.09,SE,140,0.0,0.0,82,0.00,-SN,OVC,0.00,0.0,WeatherDisplay:10.37,2013-01-26 02:40:00,
2013-01-25 21:45:00,8.1,3.7,30.09,SE,140,0.0,0.0,82,0.00,-SN,OVC,0.00,0.0,WeatherDisplay:10.37,2013-01-26 02:45:00,
2013-01-25 21:50:00,7.9,3.5,30.09,SE,140,0.0,0.0,82,0.00,-SN,OVC,0.00,0.0,WeatherDisplay:10.37,2013-01-26 02:50:00,
2013-01-25 21:55:00,7.7,3.4,30.10,SE,140,0.0,0.0,82,0.00,-SN,OVC,0.00,0.0,WeatherDisplay:10.37,2013-01-26 02:55:00,
2013-01-25 22:00:00,7.5,3.2,30.10,SE,140,0.0,0.0,82,0.00,-SN,OVC,0.00,0.0,WeatherDisplay:10.37,2013-01-26 03:00:00,
2013-01-25 22:05:00,7.1,2.5,30.10,SE,140,0.0,0.0,81,0.00,-SN,OVC,0.00,0.0,WeatherDisplay:10.37,2013-01-26 03:05:00,
2013-01-25 22:10:00,6.6,2.0,30.10,SE,140,0.0,0.0,81,0.00,-SN,OVC,0.00,0.0,WeatherDisplay:10.37,2013-01-26 03:10:00,
2013-01-25 22:15:00,6.3,1.7,30.09,SE,140,0.0,0.0,81,0.00,-SN,OVC,0.00,0.0,WeatherDisplay:10.37,2013-01-26 03:15:00,
2013-01-25 22:20:00,6.0,1.4,30.10,SE,140,0.0,0.0,81,0.00,-SN,OVC,0.00,0.0,WeatherDisplay:10.37,2013-01-26 03:20:00,
2013-01-25 22:25:00,5.7,1.1,30.10,SE,140,0.0,0.0,81,0.00,-SN,OVC,0.00,0.0,WeatherDisplay:10.37,2013-01-26 03:25:00,
2013-01-25 22:30:00,5.5,0.9,30.10,SE,140,0.0,0.0,81,0.00,-SN,OVC,0.00,0.0,WeatherDisplay:10.37,2013-01-26 03:30:00,
2013-01-25 22:35:00,5.3,0.7,30.10,SE,140,0.0,0.0,81,0.00,-SN,OVC,0.00,0.0,WeatherDisplay:10.37,2013-01-26 03:35:00,
2013-01-25 22:40:00,5.1,0.5,30.10,SE,140,0.0,0.0,81,0.00,-SN,OVC,0.00,0.0,WeatherDisplay:10.37,2013-01-26 03:40:00,
2013-01-25 22:45:00,5.0,3.2,30.10,SE,140,0.0,0.0,92,0.00,-SN,OVC,0.00,0.0,WeatherDisplay:10.37,2013-01-26 03:45:00,
2013-01-25 22:50:00,4.8,0.2,30.10,SE,140,0.0,0.0,81,0.00,-SN,OVC,0.00,0.0,WeatherDisplay:10.37,2013-01-26 03:50:00,
2013-01-25 22:55:00,4.7,0.4,30.10,SE,140,0.0,0.0,82,0.00,-SN,OVC,0.00,0.0,WeatherDisplay:10.37,2013-01-26 03:55:00,
2013-01-25 23:00:00,4.6,0.1,30.10,SE,140,0.0,0.0,81,0.00,-SN,OVC,0.00,0.0,WeatherDisplay:10.37,2013-01-26 04:00:00,
2013-01-25 23:05:00,4.5,0.0,30.10,SE,140,0.0,0.0,81,0.00,-SN,OVC,0.00,0.0,WeatherDisplay:10.37,2013-01-26 04:05:00,
2013-01-25 23:10:00,4.3,-0.2,30.10,SE,140,0.0,0.0,81,0.00,-SN,OVC,0.00,0.0,WeatherDisplay:10.37,2013-01-26 04:10:00,
2013-01-25 23:15:00,4.2,-0.1,30.10,SE,140,0.0,0.0,82,0.00,-SN,OVC,0.00,0.0,WeatherDisplay:10.37,2013-01-26 04:15:00,
2013-01-25 23:20:00,4.1,-0.4,30.10,SE,140,0.0,0.0,81,0.00,-SN,OVC,0.00,0.0,WeatherDisplay:10.37,2013-01-26 04:20:00,
2013-01-25 23:25:00,3.9,-0.6,30.10,SE,140,0.0,0.0,81,0.00,-SN,OVC,0.00,0.0,WeatherDisplay:10.37,2013-01-26 04:25:00,
2013-01-25 23:30:00,3.7,-0.8,30.10,SE,140,0.0,0.0,81,0.00,-SN,OVC,0.00,0.0,WeatherDisplay:10.37,2013-01-26 04:30:00,
2013-01-25 23:35:00,3.6,-0.9,30.10,SE,140,0.3,1.1,81,0.00,-SN,OVC,0.00,0.0,WeatherDisplay:10.37,2013-01-26 04:35:00,
2013-01-25 23:40:00,3.4,-1.1,30.10,SE,140,0.0,0.0,81,0.00,-SN,OVC,0.00,0.0,WeatherDisplay:10.37,2013-01-26 04:40:00,
2013-01-25 23:45:00,3.2,-1.3,30.10,SE,140,0.5,1.1,81,0.00,-SN,OVC,0.00,0.0,WeatherDisplay:10.37,2013-01-26 04:45:00,
2013-01-25 23:50:00,3.2,-1.1,30.10,SE,140,0.6,2.3,82,0.00,-SN,OVC,0.00,0.0,WeatherDisplay:10.37,2013-01-26 04:50:00,
2013-01-25 23:55:00,3.3,-1.0,30.10,SE,140,1.3,2.3,82,0.00,-SN,OVC,0.00,0.0,WeatherDisplay:10.37,2013-01-26 04:55:00,